sensor_id;sensor_type;location;lat;lon;timestamp;pressure;altitude;pressure_sealevel;temperature;humidity
74881;BME280;63427;49.654;6.596;2022-12-07T00:01:12;99953.55;;;6.77;42.92
74881;BME280;63427;49.654;6.596;2022-12-07T00:03:36;99951.69;;;6.73;43.09
74881;BME280;63427;49.654;6.596;2022-12-07T00:06:02;99956.86;;;6.97;42.63
74881;BME280;63427;49.654;6.596;2022-12-07T00:08:26;99956.59;;;7.23;42.42
74881;BME280;63427;49.654;6.596;2022-12-07T00:10:52;99958.30;;;6.70;42.73
74881;BME280;63427;49.654;6.596;2022-12-07T00:13:17;99960.75;;;7.01;42.60
74881;BME280;63427;49.654;6.596;2022-12-07T00:15:43;99963.15;;;6.67;43.06
74881;BME280;63427;49.654;6.596;2022-12-07T00:18:07;99962.38;;;6.99;42.45
74881;BME280;63427;49.654;6.596;2022-12-07T00:20:33;99956.91;;;6.81;42.26
74881;BME280;63427;49.654;6.596;2022-12-07T00:22:59;99948.65;;;6.94;42.08
74881;BME280;63427;49.654;6.596;2022-12-07T00:25:25;99939.42;;;6.88;42.23
74881;BME280;63427;49.654;6.596;2022-12-07T00:27:52;99940.48;;;6.79;42.43
74881;BME280;63427;49.654;6.596;2022-12-07T00:30:16;99942.68;;;6.77;42.37
74881;BME280;63427;49.654;6.596;2022-12-07T00:32:42;99936.42;;;6.77;42.44
74881;BME280;63427;49.654;6.596;2022-12-07T00:35:08;99933.71;;;6.68;42.24
74881;BME280;63427;49.654;6.596;2022-12-07T00:37:33;99929.67;;;6.78;42.42
74881;BME280;63427;49.654;6.596;2022-12-07T00:39:59;99927.07;;;6.90;42.28
74881;BME280;63427;49.654;6.596;2022-12-07T00:42:25;99926.44;;;6.94;42.33
74881;BME280;63427;49.654;6.596;2022-12-07T00:44:50;99923.57;;;6.97;42.30
74881;BME280;63427;49.654;6.596;2022-12-07T00:47:16;99918.19;;;6.92;42.15
74881;BME280;63427;49.654;6.596;2022-12-07T00:49:42;99913.67;;;6.92;42.31
74881;BME280;63427;49.654;6.596;2022-12-07T00:52:08;99912.38;;;7.18;41.94
74881;BME280;63427;49.654;6.596;2022-12-07T00:54:33;99911.10;;;6.97;42.26
74881;BME280;63427;49.654;6.596;2022-12-07T00:56:59;99915.17;;;6.98;42.40
74881;BME280;63427;49.654;6.596;2022-12-07T00:59:24;99912.97;;;7.07;42.19
74881;BME280;63427;49.654;6.596;2022-12-07T01:01:49;99911.49;;;7.03;42.58
74881;BME280;63427;49.654;6.596;2022-12-07T01:04:15;99907.86;;;7.13;42.31
74881;BME280;63427;49.654;6.596;2022-12-07T01:06:40;99907.22;;;7.13;42.31
74881;BME280;63427;49.654;6.596;2022-12-07T01:09:06;99903.23;;;7.08;42.41
74881;BME280;63427;49.654;6.596;2022-12-07T01:11:32;99897.56;;;7.17;42.11
74881;BME280;63427;49.654;6.596;2022-12-07T01:13:58;99895.64;;;7.11;42.08
74881;BME280;63427;49.654;6.596;2022-12-07T01:16:24;99893.81;;;7.17;42.20
74881;BME280;63427;49.654;6.596;2022-12-07T01:18:50;99889.31;;;7.18;42.25
74881;BME280;63427;49.654;6.596;2022-12-07T01:21:15;99894.46;;;7.16;41.92
74881;BME280;63427;49.654;6.596;2022-12-07T01:23:39;99898.48;;;7.28;42.11
74881;BME280;63427;49.654;6.596;2022-12-07T01:26:07;99899.28;;;7.13;42.13
74881;BME280;63427;49.654;6.596;2022-12-07T01:28:30;99903.36;;;7.26;42.10
74881;BME280;63427;49.654;6.596;2022-12-07T01:30:58;99908.38;;;7.09;42.32
74881;BME280;63427;49.654;6.596;2022-12-07T01:33:22;99909.29;;;7.12;42.03
74881;BME280;63427;49.654;6.596;2022-12-07T01:35:47;99907.47;;;6.82;42.14
74881;BME280;63427;49.654;6.596;2022-12-07T01:38:13;99912.90;;;6.92;42.02
74881;BME280;63427;49.654;6.596;2022-12-07T01:40:38;99915.97;;;6.83;42.46
74881;BME280;63427;49.654;6.596;2022-12-07T01:43:04;99918.05;;;7.02;42.59
74881;BME280;63427;49.654;6.596;2022-12-07T01:45:38;99916.61;;;6.76;42.54
74881;BME280;63427;49.654;6.596;2022-12-07T01:47:56;99918.34;;;7.10;42.19
74881;BME280;63427;49.654;6.596;2022-12-07T01:50:21;99912.90;;;6.75;42.63
74881;BME280;63427;49.654;6.596;2022-12-07T01:52:48;99909.50;;;6.62;42.59
74881;BME280;63427;49.654;6.596;2022-12-07T01:55:13;99906.01;;;6.62;42.57
74881;BME280;63427;49.654;6.596;2022-12-07T01:57:41;99901.22;;;6.42;42.89
74881;BME280;63427;49.654;6.596;2022-12-07T02:00:04;99902.98;;;6.15;43.47
74881;BME280;63427;49.654;6.596;2022-12-07T02:02:30;99906.62;;;6.66;43.16
74881;BME280;63427;49.654;6.596;2022-12-07T02:04:54;99910.06;;;6.73;43.19
74881;BME280;63427;49.654;6.596;2022-12-07T02:07:20;99908.24;;;6.61;43.21
74881;BME280;63427;49.654;6.596;2022-12-07T02:09:45;99904.69;;;6.64;43.07
74881;BME280;63427;49.654;6.596;2022-12-07T02:12:10;99897.78;;;6.66;43.03
74881;BME280;63427;49.654;6.596;2022-12-07T02:14:36;99891.87;;;6.79;43.01
74881;BME280;63427;49.654;6.596;2022-12-07T02:17:09;99893.18;;;7.21;42.68
74881;BME280;63427;49.654;6.596;2022-12-07T02:21:57;99893.79;;;6.74;42.57
74881;BME280;63427;49.654;6.596;2022-12-07T02:24:35;99887.64;;;6.75;42.60
74881;BME280;63427;49.654;6.596;2022-12-07T02:29:14;99890.77;;;7.03;42.13
74881;BME280;63427;49.654;6.596;2022-12-07T02:31:34;99889.54;;;7.02;41.88
74881;BME280;63427;49.654;6.596;2022-12-07T02:34:07;99888.16;;;7.17;42.00
74881;BME280;63427;49.654;6.596;2022-12-07T02:36:28;99884.74;;;6.68;42.77
74881;BME280;63427;49.654;6.596;2022-12-07T02:38:55;99882.60;;;7.03;42.33
74881;BME280;63427;49.654;6.596;2022-12-07T02:41:21;99880.66;;;7.00;42.41
74881;BME280;63427;49.654;6.596;2022-12-07T02:43:44;99882.87;;;6.78;42.54
74881;BME280;63427;49.654;6.596;2022-12-07T02:46:09;99882.41;;;7.14;42.16
74881;BME280;63427;49.654;6.596;2022-12-07T02:48:34;99884.19;;;7.25;42.04
74881;BME280;63427;49.654;6.596;2022-12-07T02:50:58;99880.82;;;7.26;41.78
74881;BME280;63427;49.654;6.596;2022-12-07T02:53:30;99884.48;;;7.16;41.56
74881;BME280;63427;49.654;6.596;2022-12-07T02:55:49;99884.12;;;7.40;41.92
74881;BME280;63427;49.654;6.596;2022-12-07T02:58:23;99885.25;;;7.30;41.98
74881;BME280;63427;49.654;6.596;2022-12-07T03:00:46;99884.23;;;7.44;41.93
74881;BME280;63427;49.654;6.596;2022-12-07T03:03:10;99882.69;;;7.41;42.02
74881;BME280;63427;49.654;6.596;2022-12-07T03:05:49;99880.91;;;7.38;42.16
74881;BME280;63427;49.654;6.596;2022-12-07T03:08:01;99875.89;;;7.47;42.02
74881;BME280;63427;49.654;6.596;2022-12-07T03:10:27;99873.15;;;7.47;41.66
74881;BME280;63427;49.654;6.596;2022-12-07T03:12:54;99874.25;;;7.35;41.83
74881;BME280;63427;49.654;6.596;2022-12-07T03:15:15;99866.55;;;7.24;41.87
74881;BME280;63427;49.654;6.596;2022-12-07T03:17:40;99865.33;;;7.12;42.44
74881;BME280;63427;49.654;6.596;2022-12-07T03:20:09;99865.42;;;7.07;42.44
74881;BME280;63427;49.654;6.596;2022-12-07T03:22:31;99862.07;;;7.16;42.22
74881;BME280;63427;49.654;6.596;2022-12-07T03:24:58;99859.98;;;7.12;42.18
74881;BME280;63427;49.654;6.596;2022-12-07T03:27:22;99860.97;;;7.09;42.15
74881;BME280;63427;49.654;6.596;2022-12-07T03:29:49;99860.76;;;7.22;42.48
74881;BME280;63427;49.654;6.596;2022-12-07T03:32:14;99862.15;;;6.92;42.69
74881;BME280;63427;49.654;6.596;2022-12-07T03:34:40;99860.38;;;6.87;42.83
74881;BME280;63427;49.654;6.596;2022-12-07T03:37:05;99860.93;;;6.84;42.96
74881;BME280;63427;49.654;6.596;2022-12-07T03:39:30;99857.92;;;7.05;43.04
74881;BME280;63427;49.654;6.596;2022-12-07T03:41:53;99856.40;;;7.05;42.78
74881;BME280;63427;49.654;6.596;2022-12-07T03:44:18;99853.94;;;7.22;42.54
74881;BME280;63427;49.654;6.596;2022-12-07T03:46:46;99859.35;;;7.09;42.12
74881;BME280;63427;49.654;6.596;2022-12-07T03:49:16;99856.28;;;7.16;42.13
74881;BME280;63427;49.654;6.596;2022-12-07T03:51:40;99853.80;;;7.22;42.19
74881;BME280;63427;49.654;6.596;2022-12-07T03:54:05;99851.38;;;7.31;42.13
74881;BME280;63427;49.654;6.596;2022-12-07T03:56:26;99852.91;;;7.35;41.89
74881;BME280;63427;49.654;6.596;2022-12-07T03:58:52;99853.35;;;7.24;42.20
74881;BME280;63427;49.654;6.596;2022-12-07T04:01:17;99849.61;;;7.26;42.00
74881;BME280;63427;49.654;6.596;2022-12-07T04:03:42;99851.51;;;7.49;41.94
74881;BME280;63427;49.654;6.596;2022-12-07T04:06:08;99853.71;;;6.89;42.50
74881;BME280;63427;49.654;6.596;2022-12-07T04:08:34;99854.62;;;7.34;41.98
74881;BME280;63427;49.654;6.596;2022-12-07T04:10:59;99848.10;;;7.32;42.02
74881;BME280;63427;49.654;6.596;2022-12-07T04:13:24;99844.15;;;7.20;41.86
74881;BME280;63427;49.654;6.596;2022-12-07T04:15:50;99845.36;;;7.56;42.06
74881;BME280;63427;49.654;6.596;2022-12-07T04:18:15;99841.77;;;7.54;41.80
74881;BME280;63427;49.654;6.596;2022-12-07T04:20:41;99840.32;;;7.39;41.85
74881;BME280;63427;49.654;6.596;2022-12-07T04:23:06;99840.94;;;7.69;41.87
74881;BME280;63427;49.654;6.596;2022-12-07T04:25:32;99838.58;;;7.46;42.02
74881;BME280;63427;49.654;6.596;2022-12-07T04:27:58;99836.78;;;7.20;41.31
74881;BME280;63427;49.654;6.596;2022-12-07T04:30:23;99840.36;;;7.24;41.23
74881;BME280;63427;49.654;6.596;2022-12-07T04:32:48;99839.31;;;7.39;41.13
74881;BME280;63427;49.654;6.596;2022-12-07T04:35:14;99835.76;;;7.56;41.53
74881;BME280;63427;49.654;6.596;2022-12-07T04:37:40;99835.78;;;7.85;41.52
74881;BME280;63427;49.654;6.596;2022-12-07T04:40:07;99828.59;;;7.65;41.57
74881;BME280;63427;49.654;6.596;2022-12-07T04:42:31;99826.93;;;7.95;41.41
74881;BME280;63427;49.654;6.596;2022-12-07T04:44:57;99826.80;;;7.46;41.54
74881;BME280;63427;49.654;6.596;2022-12-07T04:47:23;99827.48;;;7.92;41.47
74881;BME280;63427;49.654;6.596;2022-12-07T04:49:48;99826.28;;;7.44;41.49
74881;BME280;63427;49.654;6.596;2022-12-07T04:52:13;99826.08;;;7.93;41.09
74881;BME280;63427;49.654;6.596;2022-12-07T04:54:39;99829.89;;;7.47;41.15
74881;BME280;63427;49.654;6.596;2022-12-07T04:57:04;99827.04;;;8.01;41.07
74881;BME280;63427;49.654;6.596;2022-12-07T04:59:30;99822.66;;;7.56;41.24
74881;BME280;63427;49.654;6.596;2022-12-07T05:01:56;99823.42;;;7.55;41.28
74881;BME280;63427;49.654;6.596;2022-12-07T05:04:21;99826.97;;;7.45;41.54
74881;BME280;63427;49.654;6.596;2022-12-07T05:06:47;99825.73;;;7.72;41.56
74881;BME280;63427;49.654;6.596;2022-12-07T05:09:12;99822.73;;;7.37;41.22
74881;BME280;63427;49.654;6.596;2022-12-07T05:11:38;99823.07;;;7.32;41.32
74881;BME280;63427;49.654;6.596;2022-12-07T05:14:06;99823.05;;;7.09;41.58
74881;BME280;63427;49.654;6.596;2022-12-07T05:16:29;99823.17;;;7.62;41.64
74881;BME280;63427;49.654;6.596;2022-12-07T05:18:55;99829.24;;;7.18;41.37
74881;BME280;63427;49.654;6.596;2022-12-07T05:21:21;99828.72;;;7.69;41.50
74881;BME280;63427;49.654;6.596;2022-12-07T05:23:46;99827.06;;;7.43;41.40
74881;BME280;63427;49.654;6.596;2022-12-07T05:26:12;99824.10;;;7.53;41.46
74881;BME280;63427;49.654;6.596;2022-12-07T05:28:37;99828.07;;;7.65;41.74
74881;BME280;63427;49.654;6.596;2022-12-07T05:31:03;99829.54;;;7.14;42.38
74881;BME280;63427;49.654;6.596;2022-12-07T05:33:28;99825.62;;;7.14;42.26
74881;BME280;63427;49.654;6.596;2022-12-07T05:35:54;99820.00;;;6.78;42.48
74881;BME280;63427;49.654;6.596;2022-12-07T05:38:20;99821.40;;;7.48;42.32
74881;BME280;63427;49.654;6.596;2022-12-07T05:40:45;99823.53;;;7.70;41.88
74881;BME280;63427;49.654;6.596;2022-12-07T05:43:11;99819.91;;;7.62;41.98
74881;BME280;63427;49.654;6.596;2022-12-07T05:45:37;99821.26;;;7.08;42.45
74881;BME280;63427;49.654;6.596;2022-12-07T05:48:02;99818.59;;;7.49;42.07
74881;BME280;63427;49.654;6.596;2022-12-07T05:50:28;99817.31;;;7.24;42.24
74881;BME280;63427;49.654;6.596;2022-12-07T05:52:53;99818.73;;;7.65;42.10
74881;BME280;63427;49.654;6.596;2022-12-07T05:55:19;99817.70;;;7.64;41.78
74881;BME280;63427;49.654;6.596;2022-12-07T05:57:44;99823.57;;;6.74;43.52
74881;BME280;63427;49.654;6.596;2022-12-07T06:00:11;99829.03;;;6.99;42.75
74881;BME280;63427;49.654;6.596;2022-12-07T06:02:34;99828.75;;;7.40;42.43
74881;BME280;63427;49.654;6.596;2022-12-07T06:05:00;99829.82;;;7.37;42.25
74881;BME280;63427;49.654;6.596;2022-12-07T06:07:26;99832.99;;;7.50;42.31
74881;BME280;63427;49.654;6.596;2022-12-07T06:09:51;99834.55;;;7.10;41.97
74881;BME280;63427;49.654;6.596;2022-12-07T06:12:16;99836.28;;;7.47;42.01
74881;BME280;63427;49.654;6.596;2022-12-07T06:14:42;99834.58;;;7.05;42.35
74881;BME280;63427;49.654;6.596;2022-12-07T06:17:08;99830.30;;;7.67;42.14
74881;BME280;63427;49.654;6.596;2022-12-07T06:19:33;99831.70;;;7.64;41.93
74881;BME280;63427;49.654;6.596;2022-12-07T06:21:58;99828.97;;;7.75;41.81
74881;BME280;63427;49.654;6.596;2022-12-07T06:24:24;99824.40;;;7.34;42.04
74881;BME280;63427;49.654;6.596;2022-12-07T06:26:49;99819.13;;;7.82;41.50
74881;BME280;63427;49.654;6.596;2022-12-07T06:29:15;99820.49;;;7.32;42.32
74881;BME280;63427;49.654;6.596;2022-12-07T06:31:40;99820.69;;;7.44;41.79
74881;BME280;63427;49.654;6.596;2022-12-07T06:34:08;99819.18;;;7.72;41.85
74881;BME280;63427;49.654;6.596;2022-12-07T06:36:30;99817.69;;;7.40;41.71
74881;BME280;63427;49.654;6.596;2022-12-07T06:38:56;99819.57;;;7.91;41.87
74881;BME280;63427;49.654;6.596;2022-12-07T06:41:21;99819.85;;;7.95;41.65
74881;BME280;63427;49.654;6.596;2022-12-07T06:43:47;99818.41;;;7.35;41.82
74881;BME280;63427;49.654;6.596;2022-12-07T06:46:11;99821.90;;;7.99;41.42
74881;BME280;63427;49.654;6.596;2022-12-07T06:48:37;99828.63;;;7.04;42.85
74881;BME280;63427;49.654;6.596;2022-12-07T06:51:03;99826.58;;;7.33;42.54
74881;BME280;63427;49.654;6.596;2022-12-07T06:53:28;99825.01;;;7.78;42.11
74881;BME280;63427;49.654;6.596;2022-12-07T06:55:53;99828.63;;;7.45;42.02
74881;BME280;63427;49.654;6.596;2022-12-07T06:58:19;99822.09;;;7.67;41.86
74881;BME280;63427;49.654;6.596;2022-12-07T07:00:45;99822.84;;;7.62;41.66
74881;BME280;63427;49.654;6.596;2022-12-07T07:03:10;99823.58;;;7.65;41.88
74881;BME280;63427;49.654;6.596;2022-12-07T07:05:35;99824.06;;;7.71;42.13
74881;BME280;63427;49.654;6.596;2022-12-07T07:08:01;99820.68;;;7.85;42.00
74881;BME280;63427;49.654;6.596;2022-12-07T07:10:26;99821.05;;;7.65;41.84
74881;BME280;63427;49.654;6.596;2022-12-07T07:12:51;99823.14;;;7.83;41.65
74881;BME280;63427;49.654;6.596;2022-12-07T07:15:16;99824.60;;;7.46;41.67
74881;BME280;63427;49.654;6.596;2022-12-07T07:17:42;99827.04;;;7.53;41.87
74881;BME280;63427;49.654;6.596;2022-12-07T07:20:08;99827.42;;;8.05;41.79
74881;BME280;63427;49.654;6.596;2022-12-07T07:22:33;99830.53;;;8.25;41.51
74881;BME280;63427;49.654;6.596;2022-12-07T07:24:58;99838.33;;;7.66;41.65
74881;BME280;63427;49.654;6.596;2022-12-07T07:27:23;99838.42;;;7.79;41.56
74881;BME280;63427;49.654;6.596;2022-12-07T07:29:49;99837.35;;;7.76;41.64
74881;BME280;63427;49.654;6.596;2022-12-07T07:32:14;99841.41;;;8.37;41.23
74881;BME280;63427;49.654;6.596;2022-12-07T07:34:40;99844.65;;;7.98;41.19
74881;BME280;63427;49.654;6.596;2022-12-07T07:37:05;99849.61;;;7.93;41.34
74881;BME280;63427;49.654;6.596;2022-12-07T07:39:30;99849.48;;;8.04;41.27
74881;BME280;63427;49.654;6.596;2022-12-07T07:41:55;99852.12;;;7.98;41.30
74881;BME280;63427;49.654;6.596;2022-12-07T07:44:21;99853.61;;;7.98;41.54
74881;BME280;63427;49.654;6.596;2022-12-07T07:46:47;99856.31;;;8.17;41.67
74881;BME280;63427;49.654;6.596;2022-12-07T07:49:13;99856.96;;;8.00;41.53
74881;BME280;63427;49.654;6.596;2022-12-07T07:51:37;99859.28;;;8.11;41.45
74881;BME280;63427;49.654;6.596;2022-12-07T07:54:03;99860.03;;;8.05;41.34
74881;BME280;63427;49.654;6.596;2022-12-07T07:56:29;99860.35;;;8.02;41.36
74881;BME280;63427;49.654;6.596;2022-12-07T07:58:54;99864.41;;;8.02;41.43
74881;BME280;63427;49.654;6.596;2022-12-07T08:01:20;99866.79;;;8.46;41.33
74881;BME280;63427;49.654;6.596;2022-12-07T08:03:46;99867.61;;;7.92;41.56
74881;BME280;63427;49.654;6.596;2022-12-07T08:06:11;99869.06;;;8.00;41.63
74881;BME280;63427;49.654;6.596;2022-12-07T08:08:36;99873.06;;;8.09;41.55
74881;BME280;63427;49.654;6.596;2022-12-07T08:11:05;99874.87;;;8.13;41.14
74881;BME280;63427;49.654;6.596;2022-12-07T08:13:27;99875.40;;;8.13;41.01
74881;BME280;63427;49.654;6.596;2022-12-07T08:15:53;99877.79;;;8.22;41.01
74881;BME280;63427;49.654;6.596;2022-12-07T08:18:18;99880.39;;;8.12;41.03
74881;BME280;63427;49.654;6.596;2022-12-07T08:20:44;99882.60;;;8.20;41.11
74881;BME280;63427;49.654;6.596;2022-12-07T08:23:10;99882.03;;;8.09;41.27
74881;BME280;63427;49.654;6.596;2022-12-07T08:25:35;99882.80;;;8.17;41.14
74881;BME280;63427;49.654;6.596;2022-12-07T08:28:00;99880.34;;;8.12;41.22
74881;BME280;63427;49.654;6.596;2022-12-07T08:30:25;99883.09;;;8.21;41.08
74881;BME280;63427;49.654;6.596;2022-12-07T08:32:51;99887.29;;;8.29;40.81
74881;BME280;63427;49.654;6.596;2022-12-07T08:35:16;99889.39;;;8.25;41.21
74881;BME280;63427;49.654;6.596;2022-12-07T08:37:42;99894.05;;;8.19;41.44
74881;BME280;63427;49.654;6.596;2022-12-07T08:40:09;99895.26;;;8.22;41.34
74881;BME280;63427;49.654;6.596;2022-12-07T08:42:33;99896.01;;;8.35;41.25
74881;BME280;63427;49.654;6.596;2022-12-07T08:44:58;99892.30;;;8.26;41.03
74881;BME280;63427;49.654;6.596;2022-12-07T08:47:24;99891.10;;;8.32;41.33
74881;BME280;63427;49.654;6.596;2022-12-07T08:49:50;99888.47;;;8.34;41.17
74881;BME280;63427;49.654;6.596;2022-12-07T08:52:14;99887.07;;;8.22;41.15
74881;BME280;63427;49.654;6.596;2022-12-07T08:54:40;99883.08;;;8.33;41.05
74881;BME280;63427;49.654;6.596;2022-12-07T08:57:06;99880.22;;;8.46;40.86
74881;BME280;63427;49.654;6.596;2022-12-07T08:59:33;99882.28;;;8.51;41.03
74881;BME280;63427;49.654;6.596;2022-12-07T09:01:56;99879.46;;;8.59;40.72
74881;BME280;63427;49.654;6.596;2022-12-07T09:04:22;99879.58;;;8.55;41.27
74881;BME280;63427;49.654;6.596;2022-12-07T09:06:47;99880.45;;;8.52;41.09
74881;BME280;63427;49.654;6.596;2022-12-07T09:09:13;99884.71;;;8.20;41.03
74881;BME280;63427;49.654;6.596;2022-12-07T09:11:38;99887.09;;;8.55;40.88
74881;BME280;63427;49.654;6.596;2022-12-07T09:14:04;99885.64;;;8.80;40.39
74881;BME280;63427;49.654;6.596;2022-12-07T09:16:29;99886.50;;;8.75;40.30
74881;BME280;63427;49.654;6.596;2022-12-07T09:18:55;99891.31;;;8.49;40.62
74881;BME280;63427;49.654;6.596;2022-12-07T09:21:21;99890.49;;;8.69;40.60
74881;BME280;63427;49.654;6.596;2022-12-07T09:23:46;99892.71;;;8.81;40.69
74881;BME280;63427;49.654;6.596;2022-12-07T09:26:12;99891.44;;;8.65;40.49
74881;BME280;63427;49.654;6.596;2022-12-07T09:28:37;99894.90;;;8.87;40.71
74881;BME280;63427;49.654;6.596;2022-12-07T09:31:03;99891.86;;;8.59;40.80
74881;BME280;63427;49.654;6.596;2022-12-07T09:33:28;99888.71;;;8.61;40.49
74881;BME280;63427;49.654;6.596;2022-12-07T09:35:54;99885.60;;;8.36;40.45
74881;BME280;63427;49.654;6.596;2022-12-07T09:38:19;99881.13;;;8.84;40.39
74881;BME280;63427;49.654;6.596;2022-12-07T09:40:45;99877.84;;;8.45;40.43
74881;BME280;63427;49.654;6.596;2022-12-07T09:43:13;99877.38;;;8.88;40.01
74881;BME280;63427;49.654;6.596;2022-12-07T09:45:36;99877.13;;;8.78;40.26
74881;BME280;63427;49.654;6.596;2022-12-07T09:48:02;99872.62;;;9.17;40.07
74881;BME280;63427;49.654;6.596;2022-12-07T09:50:28;99872.86;;;8.73;39.99
74881;BME280;63427;49.654;6.596;2022-12-07T09:52:52;99874.49;;;8.48;40.09
74881;BME280;63427;49.654;6.596;2022-12-07T09:55:21;99867.48;;;8.73;39.96
74881;BME280;63427;49.654;6.596;2022-12-07T09:57:43;99865.52;;;8.69;40.44
74881;BME280;63427;49.654;6.596;2022-12-07T10:00:13;99861.40;;;8.81;39.98
74881;BME280;63427;49.654;6.596;2022-12-07T10:02:37;99859.96;;;8.91;40.26
74881;BME280;63427;49.654;6.596;2022-12-07T10:04:59;99852.41;;;8.99;39.94
74881;BME280;63427;49.654;6.596;2022-12-07T10:07:24;99845.36;;;8.98;39.51
74881;BME280;63427;49.654;6.596;2022-12-07T10:09:50;99841.05;;;9.29;39.51
74881;BME280;63427;49.654;6.596;2022-12-07T10:12:16;99842.45;;;9.11;39.17
74881;BME280;63427;49.654;6.596;2022-12-07T10:17:28;99834.59;;;9.33;38.43
74881;BME280;63427;49.654;6.596;2022-12-07T10:19:33;99835.32;;;9.45;38.22
74881;BME280;63427;49.654;6.596;2022-12-07T10:22:04;99832.44;;;9.24;37.42
74881;BME280;63427;49.654;6.596;2022-12-07T10:24:22;99830.02;;;9.83;37.51
74881;BME280;63427;49.654;6.596;2022-12-07T10:26:50;99822.51;;;9.49;36.43
74881;BME280;63427;49.654;6.596;2022-12-07T10:29:15;99819.11;;;10.22;35.69
74881;BME280;63427;49.654;6.596;2022-12-07T10:31:39;99821.78;;;10.19;35.86
74881;BME280;63427;49.654;6.596;2022-12-07T10:34:08;99819.62;;;10.20;36.01
74881;BME280;63427;49.654;6.596;2022-12-07T10:36:35;99820.12;;;10.15;36.25
74881;BME280;63427;49.654;6.596;2022-12-07T10:39:01;99816.66;;;10.68;35.26
74881;BME280;63427;49.654;6.596;2022-12-07T10:41:20;99815.58;;;10.73;34.80
74881;BME280;63427;49.654;6.596;2022-12-07T10:43:50;99814.88;;;11.71;34.09
74881;BME280;63427;49.654;6.596;2022-12-07T10:46:26;99813.52;;;11.57;34.78
74881;BME280;63427;49.654;6.596;2022-12-07T10:48:41;99811.41;;;11.54;33.75
74881;BME280;63427;49.654;6.596;2022-12-07T10:51:08;99807.25;;;11.53;33.21
74881;BME280;63427;49.654;6.596;2022-12-07T10:53:35;99804.56;;;11.44;33.45
74881;BME280;63427;49.654;6.596;2022-12-07T10:58:30;99798.18;;;11.74;32.43
74881;BME280;63427;49.654;6.596;2022-12-07T11:00:49;99799.76;;;11.61;33.05
74881;BME280;63427;49.654;6.596;2022-12-07T11:03:24;99802.12;;;11.13;32.68
74881;BME280;63427;49.654;6.596;2022-12-07T11:05:41;99797.41;;;11.61;32.74
74881;BME280;63427;49.654;6.596;2022-12-07T11:08:05;99794.08;;;11.60;32.96
74881;BME280;63427;49.654;6.596;2022-12-07T11:10:32;99791.78;;;11.36;33.30
74881;BME280;63427;49.654;6.596;2022-12-07T11:13:04;99788.64;;;11.42;32.64
74881;BME280;63427;49.654;6.596;2022-12-07T11:15:19;99790.36;;;10.87;33.25
74881;BME280;63427;49.654;6.596;2022-12-07T11:17:48;99784.50;;;11.26;33.35
74881;BME280;63427;49.654;6.596;2022-12-07T11:20:20;99787.83;;;10.91;33.75
74881;BME280;63427;49.654;6.596;2022-12-07T11:22:40;99785.96;;;11.02;33.76
74881;BME280;63427;49.654;6.596;2022-12-07T11:25:09;99779.56;;;11.14;34.23
74881;BME280;63427;49.654;6.596;2022-12-07T11:27:29;99777.68;;;11.11;34.11
74881;BME280;63427;49.654;6.596;2022-12-07T11:30:00;99771.23;;;11.19;33.81
74881;BME280;63427;49.654;6.596;2022-12-07T11:32:19;99771.18;;;10.47;34.55
74881;BME280;63427;49.654;6.596;2022-12-07T11:34:46;99770.29;;;9.88;34.52
74881;BME280;63427;49.654;6.596;2022-12-07T11:44:27;99763.83;;;11.03;33.51
74881;BME280;63427;49.654;6.596;2022-12-07T11:46:51;99758.55;;;11.21;33.52
74881;BME280;63427;49.654;6.596;2022-12-07T11:49:17;99758.19;;;10.86;33.29
74881;BME280;63427;49.654;6.596;2022-12-07T11:51:39;99758.28;;;10.98;33.29
74881;BME280;63427;49.654;6.596;2022-12-07T11:54:12;99757.25;;;10.81;34.13
74881;BME280;63427;49.654;6.596;2022-12-07T11:56:30;99754.15;;;10.80;33.08
74881;BME280;63427;49.654;6.596;2022-12-07T11:58:57;99753.13;;;10.80;33.28
74881;BME280;63427;49.654;6.596;2022-12-07T12:01:33;99753.61;;;10.41;33.92
74881;BME280;63427;49.654;6.596;2022-12-07T12:03:49;99751.28;;;10.86;34.39
74881;BME280;63427;49.654;6.596;2022-12-07T12:06:12;99748.10;;;10.71;34.41
74881;BME280;63427;49.654;6.596;2022-12-07T12:08:41;99743.58;;;10.68;33.93
74881;BME280;63427;49.654;6.596;2022-12-07T12:11:18;99740.47;;;10.64;34.40
74881;BME280;63427;49.654;6.596;2022-12-07T12:16:06;99744.08;;;10.60;33.87
74881;BME280;63427;49.654;6.596;2022-12-07T12:18:37;99737.93;;;10.34;34.21
74881;BME280;63427;49.654;6.596;2022-12-07T12:20:48;99733.66;;;10.86;33.63
74881;BME280;63427;49.654;6.596;2022-12-07T12:23:18;99733.03;;;10.43;34.06
74881;BME280;63427;49.654;6.596;2022-12-07T12:25:39;99733.89;;;10.54;34.17
74881;BME280;63427;49.654;6.596;2022-12-07T12:28:02;99729.02;;;10.70;33.12
74881;BME280;63427;49.654;6.596;2022-12-07T12:30:34;99726.76;;;10.97;33.19
74881;BME280;63427;49.654;6.596;2022-12-07T12:32:53;99722.25;;;10.88;33.42
74881;BME280;63427;49.654;6.596;2022-12-07T12:35:29;99719.70;;;10.68;33.04
74881;BME280;63427;49.654;6.596;2022-12-07T12:37:44;99722.72;;;10.63;33.34
74881;BME280;63427;49.654;6.596;2022-12-07T12:42:43;99720.83;;;10.77;33.05
74881;BME280;63427;49.654;6.596;2022-12-07T12:47:40;99710.04;;;10.82;32.76
74881;BME280;63427;49.654;6.596;2022-12-07T12:57:13;99708.57;;;10.83;32.94
74881;BME280;63427;49.654;6.596;2022-12-07T12:59:35;99705.77;;;10.33;33.07
74881;BME280;63427;49.654;6.596;2022-12-07T13:04:39;99704.13;;;10.60;32.94
74881;BME280;63427;49.654;6.596;2022-12-07T13:06:51;99702.99;;;10.40;33.02
74881;BME280;63427;49.654;6.596;2022-12-07T13:09:21;99701.38;;;10.42;33.79
74881;BME280;63427;49.654;6.596;2022-12-07T13:11:44;99701.71;;;10.38;33.48
74881;BME280;63427;49.654;6.596;2022-12-07T13:16:40;99699.37;;;10.42;33.62
74881;BME280;63427;49.654;6.596;2022-12-07T13:18:58;99695.13;;;10.41;33.73
74881;BME280;63427;49.654;6.596;2022-12-07T13:21:42;99698.00;;;10.38;33.20
74881;BME280;63427;49.654;6.596;2022-12-07T13:23:55;99695.76;;;10.38;33.79
74881;BME280;63427;49.654;6.596;2022-12-07T13:26:17;99691.51;;;10.14;33.95
74881;BME280;63427;49.654;6.596;2022-12-07T13:28:42;99691.47;;;10.28;33.55
74881;BME280;63427;49.654;6.596;2022-12-07T13:31:19;99688.39;;;10.02;34.30
74881;BME280;63427;49.654;6.596;2022-12-07T13:33:34;99686.96;;;10.34;34.36
74881;BME280;63427;49.654;6.596;2022-12-07T13:35:57;99685.29;;;10.37;34.16